Time;durP1;ratioP1;P1;durP2;ratioP2;P2;SDS_P1;SDS_P2;PMS_P1;PMS_P2;Temp;Humidity;BMP_temperature;BMP_pressure;BME280_temperature;BME280_humidity;BME280_pressure;Samples;Min_cycle;Max_cycle;Signal;HPM_P1;HPM_P2
2023/12/16 00:01:06;;;;;;;10.03;6.57;;;7.50;99.90;;;;;;4992270;28;20231;-74
2023/12/16 00:03:32;;;;;;;8.90;5.00;;;7.50;99.90;;;;;;4990222;28;20241;-75
2023/12/16 00:05:57;;;;;;;9.00;4.90;;;7.50;99.90;;;;;;4986007;28;20577;-75
2023/12/16 00:08:23;;;;;;;5.70;4.93;;;7.50;99.90;;;;;;4993928;28;20254;-74
2023/12/16 00:10:49;;;;;;;10.10;5.50;;;7.50;99.90;;;;;;4984172;28;20225;-75
2023/12/16 00:13:15;;;;;;;8.67;5.33;;;7.40;99.90;;;;;;4993762;28;20308;-74
2023/12/16 00:15:41;;;;;;;10.57;6.73;;;7.40;99.90;;;;;;4999067;28;20625;-73
2023/12/16 00:18:06;;;;;;;11.40;6.43;;;7.40;99.90;;;;;;4998268;28;20477;-75
2023/12/16 00:20:32;;;;;;;8.83;5.83;;;7.40;99.90;;;;;;4996564;28;20218;-73
2023/12/16 00:22:58;;;;;;;7.97;5.30;;;7.50;99.90;;;;;;4990066;28;20218;-75
2023/12/16 00:25:23;;;;;;;8.17;5.03;;;7.40;99.90;;;;;;4996835;28;20226;-74
2023/12/16 00:27:49;;;;;;;6.60;4.90;;;7.40;99.90;;;;;;4987873;28;20296;-75
2023/12/16 00:30:15;;;;;;;5.60;3.90;;;7.40;99.90;;;;;;4996668;28;20314;-74
2023/12/16 00:32:41;;;;;;;5.40;4.27;;;7.40;99.90;;;;;;4986803;28;20301;-73
2023/12/16 00:35:09;;;;;;;6.97;3.90;;;7.50;99.90;;;;;;4997522;28;20232;-74
2023/12/16 00:37:35;;;;;;;7.10;4.00;;;7.40;99.90;;;;;;4995825;28;20560;-73
2023/12/16 00:40:02;;;;;;;7.03;3.90;;;7.40;99.90;;;;;;4979154;28;20510;-75
2023/12/16 00:42:29;;;;;;;6.33;4.27;;;7.40;99.90;;;;;;4997260;28;20230;-74
2023/12/16 00:44:56;;;;;;;4.10;3.67;;;7.40;99.90;;;;;;4999634;28;20453;-74
2023/12/16 00:47:22;;;;;;;6.50;4.93;;;7.40;99.90;;;;;;4998933;28;20556;-73
2023/12/16 00:49:47;;;;;;;8.20;3.63;;;7.40;99.90;;;;;;4982997;28;20890;-75
2023/12/16 00:52:13;;;;;;;6.83;4.07;;;7.40;99.90;;;;;;4985381;28;20803;-73
2023/12/16 00:54:39;;;;;;;4.00;3.57;;;7.40;99.90;;;;;;4986269;28;20214;-74
2023/12/16 00:57:04;;;;;;;7.50;4.13;;;7.40;99.90;;;;;;4999671;28;20252;-75
2023/12/16 00:59:30;;;;;;;4.20;3.00;;;7.40;99.90;;;;;;4988657;28;20218;-75
2023/12/16 01:01:56;;;;;;;4.90;3.53;;;7.40;99.90;;;;;;4993000;28;20233;-75
2023/12/16 01:04:21;;;;;;;7.70;4.70;;;7.40;99.90;;;;;;4991341;28;20237;-74
2023/12/16 01:06:47;;;;;;;7.70;2.83;;;7.40;99.90;;;;;;4986573;28;20237;-74
2023/12/16 01:09:13;;;;;;;7.40;4.03;;;7.40;99.90;;;;;;4992406;28;20710;-73
2023/12/16 01:11:40;;;;;;;3.77;3.40;;;7.40;99.90;;;;;;4980397;28;20224;-74
2023/12/16 01:14:06;;;;;;;4.47;3.43;;;7.40;99.90;;;;;;4994253;28;20703;-74
2023/12/16 01:16:32;;;;;;;7.57;4.37;;;7.50;99.90;;;;;;4992223;28;20496;-75
2023/12/16 01:18:57;;;;;;;4.80;3.90;;;7.40;99.90;;;;;;4999653;28;20638;-75
2023/12/16 01:21:23;;;;;;;4.40;3.70;;;7.40;99.90;;;;;;4994857;28;20240;-75
2023/12/16 01:23:49;;;;;;;9.00;3.63;;;7.40;99.90;;;;;;4994929;28;20221;-75
2023/12/16 01:26:14;;;;;;;5.90;4.00;;;7.40;99.90;;;;;;4989441;28;20277;-73
2023/12/16 01:28:40;;;;;;;6.73;4.00;;;7.40;99.90;;;;;;5004005;28;20214;-74
2023/12/16 01:31:06;;;;;;;5.43;3.17;;;7.40;99.90;;;;;;4991253;28;20230;-75
2023/12/16 01:33:31;;;;;;;5.70;3.60;;;7.40;99.90;;;;;;4965159;28;20217;-74
2023/12/16 01:35:57;;;;;;;8.57;4.50;;;7.40;99.90;;;;;;4993271;28;20295;-75
2023/12/16 01:38:23;;;;;;;6.53;4.07;;;7.40;99.90;;;;;;4990212;28;20206;-73
2023/12/16 01:40:49;;;;;;;8.13;4.20;;;7.40;99.90;;;;;;4980453;28;20465;-74
2023/12/16 01:43:15;;;;;;;9.87;4.23;;;7.40;99.90;;;;;;4980146;28;20569;-73
2023/12/16 01:45:40;;;;;;;5.60;4.27;;;7.40;99.90;;;;;;4995033;28;20214;-74
2023/12/16 01:48:08;;;;;;;5.90;4.27;;;7.40;99.90;;;;;;4987262;28;20233;-75
2023/12/16 01:50:34;;;;;;;7.23;4.30;;;7.40;99.90;;;;;;4995435;28;20222;-74
2023/12/16 01:53:01;;;;;;;8.90;4.87;;;7.40;99.90;;;;;;5008990;28;20463;-75
2023/12/16 01:55:27;;;;;;;8.27;3.83;;;7.30;99.90;;;;;;4980262;28;20474;-75
2023/12/16 01:57:55;;;;;;;6.53;4.00;;;7.20;99.90;;;;;;4990509;28;20475;-73
2023/12/16 02:00:21;;;;;;;5.30;3.83;;;7.20;99.90;;;;;;4996140;28;21004;-75
2023/12/16 02:02:48;;;;;;;6.17;3.97;;;7.30;99.90;;;;;;4978221;28;20469;-75
2023/12/16 02:05:14;;;;;;;7.17;4.03;;;7.30;99.90;;;;;;4994973;28;20466;-72
2023/12/16 02:07:40;;;;;;;6.17;4.40;;;7.30;99.90;;;;;;4996174;28;20480;-74
2023/12/16 02:10:06;;;;;;;5.77;3.70;;;7.30;99.90;;;;;;4996399;28;20230;-75
2023/12/16 02:12:35;;;;;;;8.57;4.57;;;7.20;99.90;;;;;;4990505;28;20215;-75
2023/12/16 02:15:02;;;;;;;9.03;3.80;;;7.30;99.90;;;;;;4993584;28;20465;-75
2023/12/16 02:17:28;;;;;;;7.00;3.90;;;7.30;99.90;;;;;;4988588;28;20560;-75
2023/12/16 02:19:54;;;;;;;5.20;4.10;;;7.40;99.90;;;;;;4989052;28;20917;-74
2023/12/16 02:22:23;;;;;;;6.13;4.03;;;7.30;99.90;;;;;;4977276;28;20285;-75
2023/12/16 02:24:50;;;;;;;4.10;3.40;;;7.40;99.90;;;;;;4986923;28;20457;-75
2023/12/16 02:27:16;;;;;;;6.83;4.10;;;7.40;99.90;;;;;;4986366;28;20876;-74
2023/12/16 02:29:42;;;;;;;3.83;3.47;;;7.30;99.90;;;;;;4972563;28;20458;-74
2023/12/16 02:32:08;;;;;;;3.90;3.60;;;7.30;99.90;;;;;;4993848;28;20456;-73
2023/12/16 02:34:34;;;;;;;5.70;3.83;;;7.30;99.90;;;;;;4979764;28;20218;-74
2023/12/16 02:37:05;;;;;;;6.20;3.80;;;7.30;99.90;;;;;;4997403;28;20973;-75
2023/12/16 02:39:32;;;;;;;3.80;3.30;;;7.30;99.90;;;;;;4974302;28;20453;-74
2023/12/16 02:41:58;;;;;;;10.53;3.63;;;7.20;99.90;;;;;;4993819;28;20453;-75
2023/12/16 02:44:24;;;;;;;7.07;4.07;;;7.20;99.90;;;;;;4995529;28;20444;-74
2023/12/16 02:46:49;;;;;;;6.17;5.30;;;7.30;99.90;;;;;;4989010;28;20292;-75
2023/12/16 02:49:15;;;;;;;8.97;5.27;;;7.30;99.90;;;;;;4990439;28;20657;-75
2023/12/16 02:51:41;;;;;;;7.20;5.03;;;7.30;99.90;;;;;;4993566;28;20614;-73
2023/12/16 02:54:06;;;;;;;6.50;4.30;;;7.20;99.90;;;;;;4980849;28;20225;-74
2023/12/16 02:56:32;;;;;;;6.47;4.40;;;7.00;99.90;;;;;;4988069;28;20265;-75
2023/12/16 02:58:58;;;;;;;5.27;4.10;;;7.00;99.90;;;;;;4995578;28;20290;-75
2023/12/16 03:01:23;;;;;;;5.83;5.33;;;7.10;99.90;;;;;;4993357;28;20302;-74
2023/12/16 03:03:49;;;;;;;13.17;6.53;;;7.20;99.90;;;;;;4992651;28;20219;-75
2023/12/16 03:06:15;;;;;;;7.30;6.60;;;7.20;99.90;;;;;;5000722;28;20257;-75
2023/12/16 03:08:40;;;;;;;7.30;6.60;;;7.20;99.90;;;;;;4996477;28;20210;-74
2023/12/16 03:11:06;;;;;;;7.73;6.93;;;7.30;99.90;;;;;;5000211;28;20268;-75
2023/12/16 03:13:32;;;;;;;9.40;6.50;;;7.20;99.90;;;;;;5006387;28;20214;-74
2023/12/16 03:15:58;;;;;;;7.97;5.70;;;7.20;99.90;;;;;;4999751;28;20782;-75
2023/12/16 03:18:23;;;;;;;9.83;4.90;;;7.20;99.90;;;;;;4998516;28;20305;-73
2023/12/16 03:20:49;;;;;;;6.27;4.87;;;7.20;99.90;;;;;;5010032;28;20287;-74
2023/12/16 03:23:15;;;;;;;8.93;5.63;;;7.20;99.90;;;;;;5005378;28;20265;-75
2023/12/16 03:25:44;;;;;;;6.17;4.07;;;7.20;99.90;;;;;;5003610;28;20206;-74
2023/12/16 03:28:10;;;;;;;4.80;3.80;;;7.10;99.90;;;;;;5004497;28;20476;-75
2023/12/16 03:30:39;;;;;;;10.00;3.67;;;7.00;99.90;;;;;;4976618;28;20465;-73
2023/12/16 03:33:05;;;;;;;8.20;3.90;;;6.90;99.90;;;;;;5005470;28;20457;-75
2023/12/16 03:35:31;;;;;;;6.17;4.13;;;7.00;99.90;;;;;;4989361;28;20476;-74
2023/12/16 03:37:57;;;;;;;7.13;4.40;;;7.00;99.90;;;;;;5008507;28;20480;-75
2023/12/16 03:40:23;;;;;;;14.83;4.53;;;7.00;99.90;;;;;;4993065;28;20222;-75
2023/12/16 03:42:49;;;;;;;8.30;4.30;;;6.90;99.90;;;;;;4988487;28;20586;-74
2023/12/16 03:45:14;;;;;;;3.83;3.20;;;7.00;99.90;;;;;;5008902;28;20453;-75
2023/12/16 03:47:40;;;;;;;5.00;3.40;;;7.00;99.90;;;;;;5003698;28;20624;-75
2023/12/16 03:50:06;;;;;;;5.77;3.27;;;7.00;99.90;;;;;;4996996;28;20226;-75
2023/12/16 03:52:32;;;;;;;6.37;3.47;;;7.00;99.90;;;;;;5006762;28;20308;-73
2023/12/16 03:54:57;;;;;;;7.03;3.80;;;7.00;99.90;;;;;;4986438;28;21019;-75
2023/12/16 03:57:23;;;;;;;7.87;3.60;;;6.90;99.90;;;;;;4994468;28;20715;-73
2023/12/16 03:59:49;;;;;;;5.87;3.73;;;7.00;99.90;;;;;;4996308;28;20611;-75
2023/12/16 04:02:14;;;;;;;6.03;3.60;;;7.00;99.90;;;;;;4995533;28;20280;-74
2023/12/16 04:04:41;;;;;;;5.20;3.67;;;7.10;99.90;;;;;;4985162;28;20218;-74
2023/12/16 04:07:07;;;;;;;7.60;3.20;;;7.10;99.90;;;;;;4998633;28;20715;-75
2023/12/16 04:09:33;;;;;;;4.80;3.60;;;7.10;99.90;;;;;;4996586;28;20483;-75
2023/12/16 04:11:58;;;;;;;3.73;3.27;;;7.10;99.90;;;;;;4993104;28;20221;-74
2023/12/16 04:14:25;;;;;;;9.60;4.07;;;7.10;99.90;;;;;;4990244;28;20231;-75
2023/12/16 04:16:50;;;;;;;6.23;3.07;;;7.00;99.90;;;;;;4991175;28;20252;-74
2023/12/16 04:19:16;;;;;;;6.50;3.83;;;7.10;99.90;;;;;;4992657;28;20477;-75
2023/12/16 04:21:42;;;;;;;5.17;3.20;;;7.00;99.90;;;;;;4984994;28;20207;-74
2023/12/16 04:24:08;;;;;;;10.10;4.17;;;7.00;99.90;;;;;;4989449;28;20218;-75
2023/12/16 04:26:35;;;;;;;5.67;3.57;;;7.00;99.90;;;;;;4995876;28;20222;-73
2023/12/16 04:29:01;;;;;;;9.13;3.80;;;7.00;99.90;;;;;;4992279;28;20279;-75
2023/12/16 04:31:26;;;;;;;5.40;3.83;;;6.90;99.90;;;;;;4993832;28;20976;-75
2023/12/16 04:33:54;;;;;;;3.00;2.73;;;6.90;99.90;;;;;;4981501;28;20755;-75
2023/12/16 04:36:20;;;;;;;4.37;3.97;;;6.90;99.90;;;;;;4990442;28;20214;-75
2023/12/16 04:38:45;;;;;;;7.30;3.73;;;6.80;99.90;;;;;;4996621;28;21032;-74
2023/12/16 04:41:12;;;;;;;7.20;4.07;;;6.70;99.90;;;;;;4994557;28;20207;-75
2023/12/16 04:43:39;;;;;;;4.63;2.60;;;6.80;99.90;;;;;;4986862;28;20214;-74
2023/12/16 04:46:05;;;;;;;11.97;3.37;;;6.90;99.90;;;;;;4988117;28;20469;-75
2023/12/16 04:48:31;;;;;;;5.10;3.40;;;6.90;99.90;;;;;;4982068;28;20509;-74
2023/12/16 04:51:05;;;;;;;4.70;3.30;;;7.00;99.90;;;;;;4991221;28;21006;-75
2023/12/16 04:53:32;;;;;;;3.50;3.20;;;7.00;99.90;;;;;;4993647;28;20225;-74
2023/12/16 04:55:58;;;;;;;4.63;3.10;;;6.90;99.90;;;;;;4996897;28;20484;-75
2023/12/16 04:58:25;;;;;;;7.90;3.33;;;6.90;99.90;;;;;;5005803;28;20455;-73
2023/12/16 05:00:51;;;;;;;6.70;3.20;;;6.80;99.90;;;;;;4993084;28;20221;-75
2023/12/16 05:03:17;;;;;;;4.00;2.53;;;6.90;99.90;;;;;;4994740;28;20527;-74
2023/12/16 05:05:42;;;;;;;4.47;2.97;;;6.90;99.90;;;;;;4983250;28;20221;-74
2023/12/16 05:08:08;;;;;;;5.37;2.60;;;6.90;99.90;;;;;;4996175;28;20238;-75
2023/12/16 05:10:34;;;;;;;4.60;3.40;;;6.90;99.90;;;;;;4989046;28;20228;-73
2023/12/16 05:13:00;;;;;;;4.80;2.80;;;6.90;99.90;;;;;;4984290;28;20457;-75
2023/12/16 05:15:25;;;;;;;4.20;2.90;;;7.00;99.90;;;;;;4986301;28;20700;-75
2023/12/16 05:17:51;;;;;;;2.97;2.67;;;6.90;99.90;;;;;;5000251;28;20267;-75
2023/12/16 05:20:17;;;;;;;3.30;2.90;;;7.00;99.90;;;;;;4983292;28;20287;-75
2023/12/16 05:22:43;;;;;;;4.63;2.80;;;7.00;99.90;;;;;;4992281;28;20224;-74
2023/12/16 05:25:08;;;;;;;7.60;3.33;;;6.90;99.90;;;;;;4998107;28;20449;-74
2023/12/16 05:27:34;;;;;;;6.27;3.30;;;6.90;99.90;;;;;;5002097;28;20319;-74
2023/12/16 05:30:02;;;;;;;3.33;2.87;;;6.90;99.90;;;;;;4982668;28;20214;-75
2023/12/16 05:32:28;;;;;;;3.50;2.90;;;6.90;99.90;;;;;;4998303;28;20305;-74
2023/12/16 05:34:55;;;;;;;5.97;3.77;;;6.80;99.90;;;;;;4996457;28;20465;-74
2023/12/16 05:37:21;;;;;;;3.03;2.73;;;6.80;99.90;;;;;;4998168;28;20474;-75
2023/12/16 05:39:47;;;;;;;6.60;3.20;;;6.80;99.90;;;;;;4990760;28;20511;-74
2023/12/16 05:42:13;;;;;;;5.00;3.70;;;6.80;99.90;;;;;;4989017;28;20876;-74
2023/12/16 05:44:39;;;;;;;6.27;3.73;;;6.90;99.90;;;;;;4989587;28;20454;-74
2023/12/16 05:47:08;;;;;;;4.90;2.90;;;6.90;99.90;;;;;;4972323;28;20476;-75
2023/12/16 05:49:34;;;;;;;5.27;3.97;;;6.90;99.90;;;;;;4993465;28;20465;-75
2023/12/16 05:52:01;;;;;;;5.43;3.57;;;6.80;99.90;;;;;;4991549;28;20460;-75
2023/12/16 05:54:27;;;;;;;4.57;3.73;;;6.60;99.90;;;;;;4987452;28;20541;-75
2023/12/16 05:56:53;;;;;;;7.60;3.50;;;6.70;99.90;;;;;;4982977;28;21204;-74
2023/12/16 05:59:19;;;;;;;4.73;3.27;;;6.80;99.90;;;;;;5005319;28;20214;-75
2023/12/16 06:01:45;;;;;;;4.87;3.57;;;6.60;99.90;;;;;;4991576;28;20523;-74
2023/12/16 06:04:10;;;;;;;3.70;3.17;;;6.60;99.90;;;;;;4975593;28;20232;-74
2023/12/16 06:06:36;;;;;;;4.90;3.90;;;6.80;99.90;;;;;;4995612;28;20283;-75
2023/12/16 06:09:02;;;;;;;9.23;3.90;;;6.80;99.90;;;;;;4999859;28;20217;-75
2023/12/16 06:11:27;;;;;;;7.23;3.13;;;6.90;99.90;;;;;;4986680;28;20232;-74
2023/12/16 06:13:53;;;;;;;5.07;3.90;;;7.00;99.90;;;;;;4999180;28;20221;-75
2023/12/16 06:16:19;;;;;;;3.90;3.27;;;6.90;99.90;;;;;;5005147;28;20222;-74
2023/12/16 06:18:49;;;;;;;7.23;3.80;;;6.90;99.90;;;;;;4995306;28;20248;-74
2023/12/16 06:21:15;;;;;;;3.30;2.60;;;6.90;99.90;;;;;;4991222;28;20221;-75
2023/12/16 06:23:40;;;;;;;4.17;3.50;;;6.90;99.90;;;;;;5000503;28;20448;-74
2023/12/16 06:26:06;;;;;;;6.23;3.60;;;6.80;99.90;;;;;;4978521;28;20246;-74
2023/12/16 06:28:32;;;;;;;4.10;3.37;;;6.70;99.90;;;;;;4993197;28;20313;-75
2023/12/16 06:30:57;;;;;;;4.20;2.87;;;6.60;99.90;;;;;;4998734;28;20321;-75
2023/12/16 06:33:23;;;;;;;8.30;3.40;;;6.70;99.90;;;;;;4996597;28;20218;-75
2023/12/16 06:35:50;;;;;;;8.23;3.07;;;6.70;99.90;;;;;;4993928;28;20229;-74
2023/12/16 06:38:15;;;;;;;4.70;3.33;;;6.70;99.90;;;;;;5000804;28;20233;-74
2023/12/16 06:40:41;;;;;;;5.17;3.33;;;6.70;99.90;;;;;;5004436;28;20469;-74
2023/12/16 06:43:07;;;;;;;12.20;3.83;;;6.70;99.90;;;;;;4994372;28;20279;-75
2023/12/16 06:45:33;;;;;;;4.90;3.07;;;6.70;99.90;;;;;;4999861;28;20221;-74
2023/12/16 06:47:59;;;;;;;5.50;2.90;;;6.70;99.90;;;;;;4997670;28;20222;-75
2023/12/16 06:50:25;;;;;;;4.93;3.13;;;6.70;99.90;;;;;;4999781;28;20465;-73
2023/12/16 06:52:51;;;;;;;7.33;3.90;;;6.70;99.90;;;;;;4977233;28;20973;-75
2023/12/16 06:55:17;;;;;;;4.07;2.93;;;6.80;99.90;;;;;;4997989;28;20451;-75
2023/12/16 06:57:44;;;;;;;4.80;3.87;;;6.80;99.90;;;;;;4994748;28;20606;-73
2023/12/16 07:00:10;;;;;;;4.77;3.63;;;6.80;99.90;;;;;;4997020;28;20221;-75
2023/12/16 07:02:37;;;;;;;5.83;3.50;;;6.80;99.90;;;;;;4992344;28;20469;-75
2023/12/16 07:05:03;;;;;;;5.43;2.73;;;6.70;99.90;;;;;;4990617;28;20475;-75
2023/12/16 07:07:29;;;;;;;6.27;3.40;;;6.80;99.90;;;;;;5008022;28;20536;-74
2023/12/16 07:09:54;;;;;;;3.87;3.27;;;6.70;99.90;;;;;;4983954;28;20976;-75
2023/12/16 07:12:20;;;;;;;10.90;3.90;;;6.70;99.90;;;;;;4990027;28;20222;-75
2023/12/16 07:14:46;;;;;;;5.50;2.90;;;6.70;99.90;;;;;;4991967;28;20257;-74
2023/12/16 07:17:11;;;;;;;3.30;2.70;;;6.70;99.90;;;;;;5000393;28;20230;-74
2023/12/16 07:19:37;;;;;;;4.07;3.57;;;6.70;99.90;;;;;;4997957;28;20301;-75
2023/12/16 07:22:03;;;;;;;3.97;3.03;;;6.80;99.90;;;;;;4999123;28;20589;-75
2023/12/16 07:24:29;;;;;;;4.33;3.80;;;6.80;99.90;;;;;;4996810;28;20225;-73
2023/12/16 07:26:54;;;;;;;3.40;3.10;;;6.80;99.90;;;;;;4995066;28;20228;-74
2023/12/16 07:29:20;;;;;;;4.00;3.43;;;6.80;99.90;;;;;;4995778;28;20210;-74
2023/12/16 07:31:50;;;;;;;7.17;3.63;;;6.80;99.90;;;;;;4995356;28;20214;-74
2023/12/16 07:34:16;;;;;;;6.37;3.30;;;6.80;99.90;;;;;;4994701;28;20449;-75
2023/12/16 07:36:43;;;;;;;8.63;3.60;;;6.80;99.90;;;;;;4979535;28;20476;-74
2023/12/16 07:39:09;;;;;;;4.97;2.80;;;6.90;99.90;;;;;;4989627;28;20456;-75
2023/12/16 07:41:35;;;;;;;7.30;4.00;;;6.80;99.90;;;;;;4995679;28;20453;-75
2023/12/16 07:44:01;;;;;;;5.67;3.77;;;6.70;99.90;;;;;;4984745;28;20222;-75
2023/12/16 07:46:27;;;;;;;6.37;4.53;;;6.70;99.90;;;;;;4992747;28;20528;-74
2023/12/16 07:48:53;;;;;;;5.50;3.30;;;6.80;99.90;;;;;;5001969;28;20494;-74
2023/12/16 07:51:25;;;;;;;5.50;4.07;;;6.80;99.90;;;;;;4984898;28;20493;-74
2023/12/16 07:53:52;;;;;;;7.83;4.47;;;6.80;99.90;;;;;;4994003;28;20220;-74
2023/12/16 07:56:23;;;;;;;6.33;4.40;;;6.90;99.90;;;;;;4993568;28;20461;-74
2023/12/16 07:58:52;;;;;;;5.10;3.70;;;6.90;99.90;;;;;;4997509;28;20552;-74
2023/12/16 08:01:18;;;;;;;7.63;4.17;;;6.90;99.90;;;;;;4995723;28;20461;-75
2023/12/16 08:03:45;;;;;;;6.70;3.80;;;6.90;99.90;;;;;;4989067;28;20473;-74
2023/12/16 08:06:11;;;;;;;6.37;4.20;;;6.90;99.90;;;;;;4996087;28;20455;-74
2023/12/16 08:08:41;;;;;;;7.73;4.10;;;6.90;99.90;;;;;;4996616;28;20521;-75
2023/12/16 08:11:07;;;;;;;6.10;5.50;;;6.90;99.90;;;;;;4998948;28;20226;-75
2023/12/16 08:13:33;;;;;;;4.20;3.80;;;6.90;99.90;;;;;;4999470;28;20460;-74
2023/12/16 08:15:59;;;;;;;3.67;3.33;;;7.00;99.90;;;;;;4980031;28;20457;-75
2023/12/16 08:18:26;;;;;;;4.40;3.53;;;7.00;99.90;;;;;;4986268;28;20511;-74
2023/12/16 08:20:52;;;;;;;4.47;3.97;;;7.00;99.90;;;;;;4981580;28;20469;-74
2023/12/16 08:23:18;;;;;;;6.23;3.60;;;6.90;99.90;;;;;;4992463;28;20480;-74
2023/12/16 08:25:44;;;;;;;7.13;3.47;;;7.00;99.90;;;;;;4989026;28;20460;-73
2023/12/16 08:28:10;;;;;;;8.30;4.00;;;6.90;99.90;;;;;;4993909;28;20249;-74
2023/12/16 08:30:36;;;;;;;5.90;4.00;;;6.90;99.90;;;;;;4979901;28;20991;-72
2023/12/16 08:33:01;;;;;;;5.07;3.70;;;6.90;99.90;;;;;;4987757;28;20225;-74
2023/12/16 08:35:28;;;;;;;6.43;3.90;;;7.00;99.90;;;;;;4994065;28;20222;-74
2023/12/16 08:37:55;;;;;;;12.13;3.90;;;7.00;99.90;;;;;;4983398;28;20676;-74
2023/12/16 08:40:21;;;;;;;4.60;3.60;;;7.00;99.90;;;;;;5000022;28;20496;-74
2023/12/16 08:42:47;;;;;;;6.67;3.63;;;7.00;99.90;;;;;;4990860;28;20457;-74
2023/12/16 08:45:14;;;;;;;4.83;3.83;;;7.00;99.90;;;;;;5000244;28;21005;-74
2023/12/16 08:47:40;;;;;;;5.90;3.50;;;7.00;99.90;;;;;;4998960;28;20225;-74
2023/12/16 08:50:07;;;;;;;10.63;3.83;;;7.00;99.90;;;;;;4986429;28;20457;-74
2023/12/16 08:52:36;;;;;;;6.60;3.97;;;7.00;99.90;;;;;;4997365;28;20453;-72
2023/12/16 08:55:04;;;;;;;5.23;3.90;;;7.00;99.90;;;;;;4997462;28;20457;-74
2023/12/16 08:57:30;;;;;;;4.97;3.63;;;7.00;99.90;;;;;;4991872;28;20494;-74
2023/12/16 08:59:55;;;;;;;4.10;3.63;;;7.00;99.90;;;;;;4989691;28;20532;-75
2023/12/16 09:02:21;;;;;;;5.90;3.90;;;7.00;99.90;;;;;;4986485;28;20888;-74
2023/12/16 09:04:47;;;;;;;5.80;3.70;;;7.00;99.90;;;;;;4966775;28;20214;-74
2023/12/16 09:07:13;;;;;;;5.87;4.30;;;7.00;99.90;;;;;;4995071;28;20468;-74
2023/12/16 09:09:40;;;;;;;4.07;3.20;;;7.00;99.90;;;;;;4992168;28;21074;-73
2023/12/16 09:12:07;;;;;;;4.20;3.17;;;7.00;99.90;;;;;;4997138;28;20221;-74
2023/12/16 09:14:33;;;;;;;5.67;3.50;;;7.00;99.90;;;;;;5004207;28;21009;-74
2023/12/16 09:17:00;;;;;;;7.93;3.20;;;7.00;99.90;;;;;;5000051;28;20552;-74
2023/12/16 09:19:26;;;;;;;3.73;3.43;;;7.00;99.90;;;;;;4987008;28;20476;-73
2023/12/16 09:21:51;;;;;;;5.33;3.90;;;7.00;99.90;;;;;;4983654;28;20998;-75
2023/12/16 09:24:17;;;;;;;4.37;3.47;;;7.00;99.90;;;;;;4994877;28;20242;-74
2023/12/16 09:26:44;;;;;;;4.67;3.40;;;7.00;99.90;;;;;;5000613;28;20569;-74
2023/12/16 09:29:11;;;;;;;7.00;3.00;;;7.10;99.90;;;;;;4994432;28;20457;-75
2023/12/16 09:31:37;;;;;;;12.30;3.50;;;7.10;99.90;;;;;;4974638;28;20555;-74
2023/12/16 09:34:03;;;;;;;4.23;3.47;;;7.00;99.90;;;;;;4994598;28;20559;-74
2023/12/16 09:36:29;;;;;;;5.67;4.00;;;7.00;99.90;;;;;;4994230;28;20572;-75
2023/12/16 09:38:59;;;;;;;6.23;3.27;;;7.00;99.90;;;;;;4965872;28;20558;-74
2023/12/16 09:41:30;;;;;;;4.83;3.63;;;7.00;99.90;;;;;;5008460;28;21049;-75
2023/12/16 09:43:58;;;;;;;12.67;3.97;;;7.10;99.90;;;;;;4997566;28;20531;-75
2023/12/16 09:46:28;;;;;;;4.10;2.97;;;7.00;99.90;;;;;;5001521;28;20990;-72
2023/12/16 09:48:54;;;;;;;9.70;3.47;;;6.90;99.90;;;;;;4986905;28;20539;-75
2023/12/16 09:51:24;;;;;;;8.30;3.77;;;6.90;99.90;;;;;;4995346;28;20508;-74
2023/12/16 09:53:53;;;;;;;7.90;4.13;;;6.90;99.90;;;;;;4977677;28;20493;-75
2023/12/16 09:56:19;;;;;;;5.20;3.67;;;6.90;99.90;;;;;;5004034;28;20457;-75
2023/12/16 09:58:47;;;;;;;3.93;2.80;;;6.90;99.90;;;;;;4994353;28;20468;-75
2023/12/16 10:01:13;;;;;;;4.30;3.47;;;6.90;99.90;;;;;;4984495;28;20469;-75
2023/12/16 10:03:41;;;;;;;8.80;3.17;;;6.90;99.90;;;;;;4996516;28;20488;-73
2023/12/16 10:06:09;;;;;;;5.77;4.13;;;6.90;99.90;;;;;;4994326;28;20551;-74
2023/12/16 10:08:40;;;;;;;4.30;2.83;;;6.90;99.90;;;;;;4994644;28;20466;-75
2023/12/16 10:11:06;;;;;;;3.10;2.60;;;6.90;99.90;;;;;;4978184;28;20557;-75
2023/12/16 10:13:53;;;;;;;16.20;2.97;;;6.80;99.90;;;;;;5003756;28;20468;-75
2023/12/16 10:16:21;;;;;;;7.23;3.63;;;6.70;99.90;;;;;;4993216;28;20469;-74
2023/12/16 10:18:52;;;;;;;6.10;4.63;;;6.80;99.90;;;;;;4993156;28;20501;-75
2023/12/16 10:21:23;;;;;;;3.23;2.10;;;6.80;99.90;;;;;;4983677;28;20485;-75
2023/12/16 10:23:49;;;;;;;3.00;2.70;;;6.80;99.90;;;;;;4988974;28;20468;-75
2023/12/16 10:26:16;;;;;;;5.77;3.00;;;6.80;99.90;;;;;;4996670;28;20540;-75
2023/12/16 10:28:46;;;;;;;6.77;3.70;;;6.90;99.90;;;;;;4981849;28;20231;-74
2023/12/16 10:31:12;;;;;;;4.73;2.73;;;6.80;99.90;;;;;;4993516;28;20461;-75
2023/12/16 10:33:38;;;;;;;3.27;2.97;;;6.90;99.90;;;;;;4992827;28;20472;-74
2023/12/16 10:36:04;;;;;;;4.90;2.80;;;6.90;99.90;;;;;;4991436;28;20473;-75
2023/12/16 10:38:30;;;;;;;6.00;2.80;;;6.90;99.90;;;;;;4992865;28;20220;-74
2023/12/16 10:40:56;;;;;;;8.03;3.20;;;6.90;99.90;;;;;;4970375;28;20226;-73
2023/12/16 10:43:22;;;;;;;9.13;3.10;;;6.90;99.90;;;;;;4996040;28;20461;-75
2023/12/16 10:45:50;;;;;;;4.93;3.30;;;6.90;99.90;;;;;;4981365;28;20334;-74
2023/12/16 10:48:20;;;;;;;4.53;2.77;;;7.00;99.90;;;;;;4980413;28;20226;-75
2023/12/16 10:50:47;;;;;;;6.90;2.90;;;7.10;99.90;;;;;;4981609;28;20479;-74
2023/12/16 10:53:24;;;;;;;6.77;3.37;;;7.00;99.90;;;;;;4991984;28;20840;-74
2023/12/16 10:55:56;;;;;;;10.00;2.83;;;7.00;99.90;;;;;;4992679;28;20508;-74
2023/12/16 10:58:27;;;;;;;3.10;2.60;;;7.00;99.90;;;;;;4996715;28;20461;-75
2023/12/16 11:01:03;;;;;;;10.10;3.80;;;7.00;99.90;;;;;;4987971;28;20495;-75
2023/12/16 11:03:35;;;;;;;4.50;2.93;;;7.00;99.90;;;;;;4979086;28;20465;-74
2023/12/16 11:06:12;;;;;;;8.67;3.70;;;7.00;99.90;;;;;;4994601;28;20595;-74
2023/12/16 11:08:39;;;;;;;4.10;2.10;;;7.10;99.90;;;;;;4995797;28;20555;-75
2023/12/16 11:11:05;;;;;;;3.10;2.60;;;7.10;99.90;;;;;;4993964;28;20892;-74
2023/12/16 11:13:32;;;;;;;9.00;3.40;;;7.10;99.90;;;;;;4990347;28;20466;-75
2023/12/16 11:16:14;;;;;;;6.50;2.67;;;7.20;99.90;;;;;;4993456;28;20520;-74
2023/12/16 11:18:44;;;;;;;7.70;3.30;;;7.20;99.90;;;;;;4993242;28;20486;-75
2023/12/16 11:21:14;;;;;;;4.90;2.30;;;7.20;99.90;;;;;;4991303;28;20465;-75
2023/12/16 11:23:46;;;;;;;5.33;3.40;;;7.20;99.90;;;;;;4994057;28;21010;-73
2023/12/16 11:26:12;;;;;;;3.50;2.17;;;7.20;99.90;;;;;;4990638;28;20473;-73
2023/12/16 11:28:37;;;;;;;2.67;1.87;;;7.20;99.90;;;;;;5002598;28;20475;-75
2023/12/16 11:31:04;;;;;;;7.93;2.80;;;7.30;99.90;;;;;;4988682;28;20229;-75
2023/12/16 11:33:46;;;;;;;6.43;1.83;;;7.30;99.90;;;;;;5013509;28;20209;-75
2023/12/16 11:36:14;;;;;;;1.40;1.30;;;7.30;99.90;;;;;;4989332;28;20471;-75
2023/12/16 11:38:44;;;;;;;5.63;2.10;;;7.30;99.90;;;;;;4990667;28;20520;-74
2023/12/16 11:41:26;;;;;;;3.00;1.57;;;7.30;99.90;;;;;;4991929;28;20469;-75
2023/12/16 11:43:53;;;;;;;6.77;2.07;;;7.30;99.90;;;;;;4981162;28;20469;-75
2023/12/16 11:46:34;;;;;;;5.13;1.40;;;7.30;99.90;;;;;;4992625;28;20460;-75
2023/12/16 11:49:02;;;;;;;3.97;2.00;;;7.30;99.90;;;;;;4980318;28;20476;-75
2023/12/16 11:51:29;;;;;;;6.80;2.00;;;7.30;99.90;;;;;;5002738;28;20457;-74
2023/12/16 11:53:57;;;;;;;3.03;1.87;;;7.30;99.90;;;;;;4999020;28;20453;-75
2023/12/16 11:56:23;;;;;;;3.60;2.10;;;7.40;99.90;;;;;;4995022;28;20519;-75
2023/12/16 11:58:48;;;;;;;4.73;2.23;;;7.40;99.90;;;;;;4995347;28;21004;-75
2023/12/16 12:01:14;;;;;;;5.60;1.80;;;7.40;99.90;;;;;;4993640;28;20214;-75
2023/12/16 12:03:40;;;;;;;4.50;1.80;;;7.40;99.90;;;;;;4998969;28;20224;-74
2023/12/16 12:06:06;;;;;;;4.67;2.00;;;7.40;99.90;;;;;;5000425;28;20241;-75
2023/12/16 12:08:32;;;;;;;3.67;2.10;;;7.40;99.90;;;;;;4996022;28;20321;-75
2023/12/16 12:10:58;;;;;;;3.00;2.23;;;7.40;99.90;;;;;;5007346;28;20525;-74
2023/12/16 12:13:24;;;;;;;4.03;2.20;;;7.50;99.90;;;;;;4987462;28;21088;-75
2023/12/16 12:15:50;;;;;;;3.27;1.87;;;7.50;99.90;;;;;;4995813;28;20233;-75
2023/12/16 12:18:16;;;;;;;4.23;1.93;;;7.50;99.90;;;;;;4986255;28;20791;-75
2023/12/16 12:20:41;;;;;;;3.70;1.63;;;7.50;99.90;;;;;;5002825;28;20300;-75
2023/12/16 12:23:07;;;;;;;3.00;1.73;;;7.60;99.90;;;;;;4995031;28;20222;-75
2023/12/16 12:25:33;;;;;;;1.67;1.57;;;7.50;99.90;;;;;;4998032;28;20284;-75
2023/12/16 12:27:59;;;;;;;3.37;1.87;;;7.50;99.90;;;;;;4995244;28;20285;-73
2023/12/16 12:30:26;;;;;;;2.70;1.93;;;7.50;99.90;;;;;;4997316;28;20453;-75
2023/12/16 12:32:52;;;;;;;4.60;2.10;;;7.60;99.90;;;;;;4997379;28;20709;-75
2023/12/16 12:35:22;;;;;;;5.23;2.80;;;7.70;99.90;;;;;;4999136;28;20525;-75
2023/12/16 12:37:47;;;;;;;4.73;2.30;;;7.70;99.90;;;;;;4998864;28;20229;-75
2023/12/16 12:40:13;;;;;;;5.37;2.20;;;7.70;99.90;;;;;;5001868;28;20516;-75
2023/12/16 12:42:53;;;;;;;3.30;1.60;;;7.80;99.90;;;;;;5003610;28;20297;-75
2023/12/16 12:45:27;;;;;;;2.13;1.93;;;7.80;99.90;;;;;;4981429;28;20218;-75
2023/12/16 12:47:53;;;;;;;4.80;4.00;;;7.80;99.90;;;;;;5001463;28;20539;-75
2023/12/16 12:50:25;;;;;;;19.40;11.60;;;8.00;99.90;;;;;;5000344;28;20456;-75
2023/12/16 12:52:51;;;;;;;20.33;14.67;;;8.00;99.90;;;;;;5000720;28;20500;-75